Willhite, Louisiana
Current Conditions -  °F | °C
As of 8:15 AM on Sunday 25 Jan 2015 (Local Time) from KRSN Reporting Station
Clear Clear  
Wind Chill: 38°   Ceiling: Unl
Heat Index: 43°   Visibility: 10mi
Dew Point: 37°   Wind: 8mph
Humidity: 79%   Direction: 220°SW
Pressure: 29.93"   Gusts: NA
Location:  32.6533°N, 92.3683°W
Report Text: KRSN 251415Z AUTO 22007KT 10SM CLR 06/03 A2993 RMK AO2 T00610027
Loading
Personal Weather Stations






























Interactive Weather Map New forecast layout! Learn more

10-Day Weather Forecast

Advertisements
Track Severe Weather on mobile